createdAt,value
2018-11-27T00:00:38.735Z,25.43
2018-11-27T00:03:08.362Z,23.70
2018-11-27T00:05:38.263Z,24.20
2018-11-27T00:08:13.606Z,24.57
2018-11-27T00:10:42.434Z,27.13
2018-11-27T00:13:11.295Z,23.77
2018-11-27T00:15:40.154Z,21.77
2018-11-27T00:18:08.979Z,23.63
2018-11-27T00:20:37.825Z,26.53
2018-11-27T00:23:06.705Z,25.93
2018-11-27T00:25:36.134Z,26.10
2018-11-27T00:28:06.004Z,26.53
2018-11-27T00:30:34.836Z,27.70
2018-11-27T00:33:03.680Z,29.20
2018-11-27T00:35:33.539Z,23.73
2018-11-27T00:38:02.384Z,28.03
2018-11-27T00:40:31.313Z,28.93
2018-11-27T00:43:00.159Z,27.77
2018-11-27T00:45:29.028Z,27.73
2018-11-27T00:47:57.908Z,25.73
2018-11-27T00:50:27.052Z,25.40
2018-11-27T00:52:55.890Z,25.67
2018-11-27T00:55:24.723Z,25.20
2018-11-27T00:57:53.743Z,23.23
2018-11-27T01:00:23.773Z,25.87
2018-11-27T01:02:52.581Z,34.87
2018-11-27T01:05:22.779Z,24.40
2018-11-27T01:07:51.702Z,21.60
2018-11-27T01:10:21.634Z,24.73
2018-11-27T01:12:50.646Z,20.97
2018-11-27T01:15:19.486Z,24.40
2018-11-27T01:17:54.430Z,21.50
2018-11-27T01:20:23.674Z,29.40
2018-11-27T01:22:52.471Z,23.00
2018-11-27T01:25:21.323Z,26.33
2018-11-27T01:27:50.162Z,28.67
2018-11-27T01:30:21.103Z,25.90
2018-11-27T01:32:50.428Z,31.97
2018-11-27T01:35:21.701Z,23.67
2018-11-27T01:37:51.609Z,22.20
2018-11-27T01:40:22.475Z,28.77
2018-11-27T01:42:52.335Z,27.73
2018-11-27T01:45:21.814Z,24.07
2018-11-27T01:47:50.980Z,25.93
2018-11-27T01:50:20.335Z,26.37
2018-11-27T01:52:49.294Z,28.60
2018-11-27T01:55:19.164Z,26.40
2018-11-27T01:57:48.034Z,23.73
2018-11-27T02:00:21.761Z,27.37
2018-11-27T02:02:50.935Z,27.73
2018-11-27T02:05:19.787Z,26.80
2018-11-27T02:07:48.638Z,25.23
2018-11-27T02:10:17.627Z,28.77
2018-11-27T02:12:47.442Z,24.33
2018-11-27T02:15:17.558Z,22.27
2018-11-27T02:17:46.426Z,28.03
2018-11-27T02:20:15.319Z,25.90
2018-11-27T02:22:44.215Z,28.10
2018-11-27T02:25:16.283Z,25.47
2018-11-27T02:27:45.142Z,23.87
2018-11-27T02:30:18.326Z,24.90
2018-11-27T02:32:47.277Z,23.80
2018-11-27T02:35:17.843Z,24.43
2018-11-27T02:37:47.596Z,26.50
2018-11-27T02:40:17.357Z,23.43
2018-11-27T02:42:46.295Z,26.40
2018-11-27T02:45:17.710Z,23.93
2018-11-27T02:47:47.497Z,22.70
2018-11-27T02:50:18.357Z,21.93
2018-11-27T02:52:47.282Z,24.67
2018-11-27T02:55:18.127Z,26.30
2018-11-27T02:57:47.010Z,20.73
2018-11-27T03:00:18.863Z,27.27
2018-11-27T03:02:47.702Z,23.73
2018-11-27T03:05:20.167Z,24.18
2018-11-27T03:07:49.032Z,28.47
2018-11-27T03:10:17.903Z,24.40
2018-11-27T03:12:46.909Z,23.60
2018-11-27T03:15:16.765Z,23.73
2018-11-27T03:17:45.605Z,21.57
2018-11-27T03:20:15.692Z,21.83
2018-11-27T03:22:44.557Z,28.20
2018-11-27T03:25:17.312Z,24.17
2018-11-27T03:27:46.959Z,24.97
2018-11-27T03:30:16.738Z,25.17
2018-11-27T03:32:45.864Z,21.63
2018-11-27T03:35:16.647Z,22.70
2018-11-27T03:37:47.259Z,23.30
2018-11-27T03:40:15.980Z,26.50
2018-11-27T03:42:44.878Z,24.23
2018-11-27T03:45:14.310Z,23.43
2018-11-27T03:47:43.388Z,26.70
2018-11-27T03:50:17.597Z,28.27
2018-11-27T03:52:46.494Z,23.97
2018-11-27T03:55:15.322Z,28.07
2018-11-27T03:57:44.145Z,29.63
2018-11-27T04:00:22.350Z,27.07
2018-11-27T04:03:25.679Z,26.43
2018-11-27T04:05:54.534Z,29.63
2018-11-27T04:08:23.362Z,30.80
2018-11-27T04:10:52.200Z,24.37
2018-11-27T04:13:21.122Z,29.60
2018-11-27T04:15:49.983Z,25.50
2018-11-27T04:18:18.868Z,28.53
2018-11-27T04:20:48.128Z,25.05
2018-11-27T04:23:16.976Z,34.23
2018-11-27T04:25:45.912Z,29.33
2018-11-27T04:28:14.768Z,27.90
2018-11-27T04:30:43.631Z,30.27
2018-11-27T04:33:12.479Z,35.53
2018-11-27T04:35:41.327Z,31.40
2018-11-27T04:38:10.188Z,34.00
2018-11-27T04:40:39.099Z,28.67
2018-11-27T04:43:08.002Z,31.20
2018-11-27T04:45:36.859Z,32.13
2018-11-27T04:48:05.927Z,31.33
2018-11-27T04:50:34.779Z,36.50
2018-11-27T04:53:03.644Z,34.67
2018-11-27T04:55:32.527Z,28.30
2018-11-27T04:58:01.427Z,33.90
2018-11-27T05:00:30.327Z,37.37
2018-11-27T05:02:59.203Z,31.80
2018-11-27T05:05:28.102Z,38.03
2018-11-27T05:07:56.934Z,40.53
2018-11-27T05:10:25.763Z,44.30
2018-11-27T05:12:54.613Z,36.20
2018-11-27T05:15:25.148Z,38.33
2018-11-27T05:17:55.321Z,40.40
2018-11-27T05:20:24.216Z,42.10
2018-11-27T05:22:53.050Z,41.27
2018-11-27T05:25:21.907Z,41.70
2018-11-27T05:27:52.104Z,40.77
2018-11-27T05:30:22.018Z,42.60
2018-11-27T05:32:50.933Z,41.40
2018-11-27T05:35:21.443Z,34.80
2018-11-27T05:37:50.824Z,38.00
2018-11-27T05:40:20.867Z,39.93
2018-11-27T05:42:51.999Z,44.53
2018-11-27T05:45:21.699Z,40.50
2018-11-27T05:47:50.584Z,39.30
2018-11-27T05:50:19.646Z,37.47
2018-11-27T05:52:48.643Z,41.77
2018-11-27T05:55:17.943Z,32.97
2018-11-27T05:57:48.358Z,40.37
2018-11-27T06:00:22.224Z,39.27
2018-11-27T06:02:52.338Z,35.57
2018-11-27T06:05:22.203Z,35.70
2018-11-27T06:07:51.045Z,35.47
2018-11-27T06:10:20.952Z,42.57
2018-11-27T06:12:49.852Z,35.30
2018-11-27T06:15:19.711Z,33.20
2018-11-27T06:17:52.659Z,35.07
2018-11-27T06:20:22.159Z,35.40
2018-11-27T06:22:51.363Z,39.47
2018-11-27T06:25:22.055Z,34.55
2018-11-27T06:27:54.149Z,38.10
2018-11-27T06:30:24.419Z,45.35
2018-11-27T06:32:53.273Z,41.10
2018-11-27T06:35:26.134Z,45.60
2018-11-27T06:37:54.979Z,39.80
2018-11-27T06:40:26.199Z,37.93
2018-11-27T06:42:55.046Z,40.43
2018-11-27T06:45:24.278Z,42.07
2018-11-27T06:47:53.464Z,40.23
2018-11-27T06:50:22.855Z,37.23
2018-11-27T06:52:51.798Z,39.27
2018-11-27T06:55:21.687Z,42.17
2018-11-27T06:57:50.886Z,38.50
2018-11-27T07:00:23.046Z,40.20
2018-11-27T07:02:51.922Z,37.60
2018-11-27T07:05:20.775Z,35.47
2018-11-27T07:07:49.642Z,40.97
2018-11-27T07:10:20.649Z,35.10
2018-11-27T07:12:51.068Z,39.87
2018-11-27T07:15:21.085Z,36.03
2018-11-27T07:17:49.936Z,35.23
2018-11-27T07:20:18.908Z,30.07
2018-11-27T07:22:47.739Z,34.57
2018-11-27T07:25:17.103Z,37.47
2018-11-27T07:27:48.151Z,40.67
2018-11-27T07:30:18.107Z,36.37
2018-11-27T07:32:47.003Z,32.07
2018-11-27T07:35:16.617Z,35.47
2018-11-27T07:37:45.508Z,37.77
2018-11-27T07:40:17.276Z,33.87
2018-11-27T07:42:46.460Z,34.77
2018-11-27T07:45:16.356Z,34.50
2018-11-27T07:47:45.324Z,33.77
2018-11-27T07:50:14.984Z,32.17
2018-11-27T07:52:43.893Z,37.87
2018-11-27T07:55:14.796Z,33.33
2018-11-27T07:57:43.695Z,32.60
2018-11-27T08:00:15.393Z,29.93
2018-11-27T08:02:46.290Z,34.10
2018-11-27T08:05:19.268Z,31.90
2018-11-27T08:07:49.594Z,36.53
2018-11-27T08:10:19.586Z,32.33
2018-11-27T08:12:48.498Z,34.50
2018-11-27T08:15:18.533Z,32.70
2018-11-27T08:17:47.359Z,34.40
2018-11-27T08:20:24.955Z,29.27
2018-11-27T08:22:53.841Z,28.70
2018-11-27T08:25:23.571Z,36.25
2018-11-27T08:27:52.523Z,30.20
2018-11-27T08:30:21.883Z,36.67
2018-11-27T08:32:51.091Z,27.47
2018-11-27T08:35:23.119Z,31.47
2018-11-27T08:37:53.942Z,29.67
2018-11-27T08:40:24.688Z,28.98
2018-11-27T08:42:53.531Z,31.03
2018-11-27T08:45:23.519Z,34.13
2018-11-27T08:47:54.385Z,34.10
2018-11-27T08:50:24.698Z,28.83
2018-11-27T08:52:54.726Z,30.27
2018-11-27T08:55:42.701Z,32.43
2018-11-27T08:58:15.244Z,26.23
2018-11-27T09:00:44.102Z,31.23
2018-11-27T09:03:12.983Z,31.43
2018-11-27T09:05:41.938Z,30.20
2018-11-27T09:08:10.768Z,31.60
2018-11-27T09:10:39.598Z,30.97
2018-11-27T09:13:08.447Z,30.23
2018-11-27T09:15:37.546Z,31.25
2018-11-27T09:18:16.876Z,35.93
2018-11-27T09:20:45.718Z,29.80
2018-11-27T09:23:14.559Z,30.07
2018-11-27T09:25:43.467Z,28.10
2018-11-27T09:28:12.340Z,27.17
2018-11-27T09:30:41.254Z,30.13
2018-11-27T09:33:10.241Z,33.93
2018-11-27T09:35:39.075Z,27.20
2018-11-27T09:38:08.562Z,30.63
2018-11-27T09:40:37.462Z,29.50
2018-11-27T09:43:06.931Z,28.50
2018-11-27T09:45:36.609Z,27.27
2018-11-27T09:48:05.469Z,32.20
2018-11-27T09:50:34.393Z,31.07
2018-11-27T09:53:03.293Z,32.10
2018-11-27T09:55:32.137Z,29.17
2018-11-27T09:58:00.961Z,28.33
2018-11-27T10:00:31.512Z,34.60
2018-11-27T10:03:02.559Z,24.43
2018-11-27T10:05:31.455Z,27.87
2018-11-27T10:08:00.317Z,26.30
2018-11-27T10:10:29.204Z,35.73
2018-11-27T10:12:58.041Z,28.77
2018-11-27T10:15:27.928Z,32.20
2018-11-27T10:17:58.963Z,34.17
2018-11-27T10:20:29.260Z,32.77
2018-11-27T10:22:58.110Z,28.90
2018-11-27T10:25:27.066Z,29.67
2018-11-27T10:27:55.929Z,32.37
2018-11-27T10:30:25.935Z,32.13
2018-11-27T10:32:55.986Z,36.30
2018-11-27T10:35:34.896Z,44.00
2018-11-27T10:38:03.806Z,42.57
2018-11-27T10:40:32.642Z,63.60
2018-11-27T10:43:01.505Z,49.23
2018-11-27T10:45:30.336Z,26.23
2018-11-27T10:47:59.175Z,27.67
2018-11-27T10:50:28.062Z,29.93
2018-11-27T10:52:56.909Z,30.10
2018-11-27T10:55:26.597Z,29.10
2018-11-27T10:57:55.453Z,30.27
2018-11-27T11:00:33.062Z,23.77
2018-11-27T11:04:06.397Z,26.20
2018-11-27T11:06:35.328Z,25.23
2018-11-27T11:09:07.376Z,27.80
2018-11-27T11:11:36.484Z,23.93
2018-11-27T11:14:05.557Z,23.77
2018-11-27T11:16:34.412Z,25.50
2018-11-27T11:19:03.249Z,26.13
2018-11-27T11:21:32.087Z,22.17
2018-11-27T11:24:00.935Z,22.07
2018-11-27T11:26:29.818Z,26.47
2018-11-27T11:28:58.661Z,26.60
2018-11-27T11:31:27.514Z,25.03
2018-11-27T11:33:56.386Z,22.60
2018-11-27T11:36:25.207Z,22.57
2018-11-27T11:38:54.093Z,23.37
2018-11-27T11:41:22.918Z,38.93
2018-11-27T11:43:51.746Z,26.57
2018-11-27T11:46:20.653Z,35.50
2018-11-27T11:48:49.532Z,40.37
2018-11-27T11:51:18.416Z,31.62
2018-11-27T11:53:47.306Z,35.53
2018-11-27T11:56:16.202Z,24.40
2018-11-27T11:58:45.094Z,22.80
2018-11-27T12:01:14.096Z,22.60
2018-11-27T12:03:42.968Z,22.03
2018-11-27T12:06:11.950Z,23.77
2018-11-27T12:08:40.869Z,21.30
2018-11-27T12:11:09.703Z,23.73
2018-11-27T12:13:38.540Z,21.63
2018-11-27T12:16:07.443Z,21.60
2018-11-27T12:18:36.286Z,22.47
2018-11-27T12:21:05.124Z,22.63
2018-11-27T12:23:33.971Z,23.73
2018-11-27T12:26:02.900Z,22.63
2018-11-27T12:28:33.183Z,23.40
2018-11-27T12:31:02.862Z,22.80
2018-11-27T12:33:31.709Z,26.43
2018-11-27T12:36:00.723Z,22.80
2018-11-27T12:38:29.643Z,22.07
2018-11-27T12:40:58.536Z,24.17
2018-11-27T12:43:27.506Z,19.63
2018-11-27T12:45:56.552Z,21.37
2018-11-27T12:48:25.444Z,21.10
2018-11-27T12:50:54.288Z,22.07
2018-11-27T12:53:23.174Z,23.70
2018-11-27T12:55:51.998Z,16.97
2018-11-27T12:58:21.055Z,25.27
2018-11-27T13:00:50.010Z,21.30
2018-11-27T13:03:18.946Z,22.10
2018-11-27T13:05:48.234Z,22.73
2018-11-27T13:08:21.473Z,23.07
2018-11-27T13:10:50.403Z,22.37
2018-11-27T13:13:19.244Z,19.43
2018-11-27T13:15:48.245Z,19.60
2018-11-27T13:18:17.206Z,18.97
2018-11-27T13:20:46.147Z,19.03
2018-11-27T13:23:15.301Z,21.60
2018-11-27T13:25:43.944Z,22.00
2018-11-27T13:28:14.016Z,20.50
2018-11-27T13:30:59.899Z,20.23
2018-11-27T13:33:39.347Z,22.10
2018-11-27T13:36:08.723Z,20.03
2018-11-27T13:38:37.719Z,19.23
2018-11-27T13:41:06.604Z,19.40
2018-11-27T13:43:35.550Z,20.83
2018-11-27T13:46:04.652Z,23.10
2018-11-27T13:48:33.551Z,22.03
2018-11-27T13:51:02.516Z,21.33
2018-11-27T13:53:31.424Z,23.27
2018-11-27T13:56:00.314Z,20.33
2018-11-27T13:58:29.292Z,19.87
2018-11-27T14:00:58.179Z,23.17
2018-11-27T14:03:27.146Z,19.30
2018-11-27T14:05:56.465Z,23.27
2018-11-27T14:08:25.301Z,23.47
2018-11-27T14:10:54.262Z,19.80
2018-11-27T14:13:23.193Z,23.43
2018-11-27T14:15:52.095Z,22.53
2018-11-27T14:18:21.066Z,22.70
2018-11-27T14:20:49.935Z,24.37
2018-11-27T14:23:18.757Z,25.00
2018-11-27T14:25:47.647Z,26.27
2018-11-27T14:28:16.531Z,27.13
2018-11-27T14:30:45.362Z,25.80
2018-11-27T14:33:14.254Z,28.67
2018-11-27T14:35:43.181Z,26.13
2018-11-27T14:38:12.221Z,24.47
2018-11-27T14:40:41.218Z,26.83
2018-11-27T14:43:10.078Z,24.90
2018-11-27T14:45:38.951Z,30.03
2018-11-27T14:48:08.155Z,26.30
2018-11-27T14:50:37.168Z,23.63
2018-11-27T14:53:06.408Z,25.57
2018-11-27T14:55:35.800Z,25.90
2018-11-27T14:58:04.744Z,25.30
2018-11-27T15:00:33.929Z,24.50
2018-11-27T15:03:02.768Z,24.07
2018-11-27T15:05:37.664Z,26.17
2018-11-27T15:08:08.927Z,26.87
2018-11-27T15:10:37.801Z,25.30
2018-11-27T15:13:07.414Z,22.50
2018-11-27T15:15:36.407Z,38.93
2018-11-27T15:18:06.366Z,29.00
2018-11-27T15:20:35.399Z,26.53
2018-11-27T15:23:04.273Z,24.50
2018-11-27T15:25:33.125Z,27.50
2018-11-27T15:28:02.293Z,27.40
2018-11-27T15:30:33.209Z,26.67
2018-11-27T15:33:02.079Z,32.07
2018-11-27T15:35:30.966Z,26.40
2018-11-27T15:37:59.828Z,27.77
2018-11-27T15:40:29.951Z,33.63
2018-11-27T15:42:59.175Z,27.97
2018-11-27T15:45:30.536Z,27.30
2018-11-27T15:47:59.626Z,31.07
2018-11-27T15:50:28.505Z,28.53
2018-11-27T15:52:57.397Z,29.50
2018-11-27T15:55:30.517Z,25.10
2018-11-27T15:58:00.899Z,26.55
2018-11-27T16:00:29.803Z,27.70
2018-11-27T16:02:58.649Z,33.07
2018-11-27T16:05:27.586Z,23.67
2018-11-27T16:07:56.703Z,30.73
2018-11-27T16:10:25.553Z,26.70
2018-11-27T16:12:54.547Z,49.83
2018-11-27T16:15:23.457Z,29.40
2018-11-27T16:17:52.346Z,28.63
2018-11-27T16:20:22.209Z,33.87
2018-11-27T16:22:52.139Z,31.10
2018-11-27T16:25:23.103Z,31.00
2018-11-27T16:27:52.010Z,30.00
2018-11-27T16:30:27.151Z,31.43
2018-11-27T16:32:56.047Z,29.70
2018-11-27T16:35:24.892Z,34.47
2018-11-27T16:37:55.790Z,32.13
2018-11-27T16:40:28.096Z,29.07
2018-11-27T16:42:56.999Z,28.77
2018-11-27T16:45:25.912Z,30.60
2018-11-27T16:47:54.806Z,34.23
2018-11-27T16:50:23.818Z,25.33
2018-11-27T16:52:52.723Z,33.53
2018-11-27T16:55:22.751Z,32.47
2018-11-27T16:57:51.786Z,26.30
2018-11-27T17:00:23.653Z,33.10
2018-11-27T17:02:53.680Z,36.40
2018-11-27T17:05:22.635Z,25.90
2018-11-27T17:07:51.591Z,27.67
2018-11-27T17:10:21.193Z,34.80
2018-11-27T17:12:51.517Z,31.57
2018-11-27T17:15:21.323Z,28.33
2018-11-27T17:17:50.143Z,28.87
2018-11-27T17:20:37.275Z,31.47
2018-11-27T17:23:08.015Z,35.40
2018-11-27T17:25:36.979Z,30.70
2018-11-27T17:28:13.855Z,33.17
2018-11-27T17:30:45.374Z,32.13
2018-11-27T17:33:25.276Z,33.80
2018-11-27T17:35:54.311Z,25.40
2018-11-27T17:38:23.195Z,29.27
2018-11-27T17:40:52.210Z,31.13
2018-11-27T17:43:21.414Z,28.80
2018-11-27T17:45:50.264Z,32.83
2018-11-27T17:48:19.170Z,31.47
2018-11-27T17:50:48.186Z,29.27
2018-11-27T17:53:17.022Z,28.20
2018-11-27T17:55:45.950Z,30.17
2018-11-27T17:58:14.806Z,37.70
2018-11-27T18:00:43.644Z,33.27
2018-11-27T18:03:12.491Z,32.90
2018-11-27T18:05:41.334Z,41.47
2018-11-27T18:08:10.362Z,38.00
2018-11-27T18:10:39.283Z,29.97
2018-11-27T18:13:08.127Z,34.07
2018-11-27T18:15:37.774Z,32.57
2018-11-27T18:18:07.507Z,32.70
2018-11-27T18:20:36.685Z,35.10
2018-11-27T18:23:05.721Z,35.43
2018-11-27T18:25:34.591Z,36.40
2018-11-27T18:28:03.483Z,31.50
2018-11-27T18:30:32.390Z,41.60
2018-11-27T18:33:01.293Z,34.70
2018-11-27T18:35:30.237Z,43.37
2018-11-27T18:37:59.071Z,34.90
2018-11-27T18:40:27.954Z,38.33
2018-11-27T18:42:56.808Z,38.20
2018-11-27T18:45:27.192Z,39.50
2018-11-27T18:47:56.040Z,30.97
2018-11-27T18:50:26.139Z,42.83
2018-11-27T18:52:54.996Z,33.73
2018-11-27T18:55:23.846Z,40.00
2018-11-27T18:57:52.783Z,33.20
2018-11-27T19:00:24.010Z,30.07
2018-11-27T19:02:53.098Z,30.03
2018-11-27T19:05:21.971Z,33.77
2018-11-27T19:07:50.906Z,37.50
2018-11-27T19:10:23.728Z,37.30
2018-11-27T19:12:52.591Z,30.63
2018-11-27T19:15:23.731Z,33.80
2018-11-27T19:17:55.071Z,34.53
2018-11-27T19:20:23.983Z,32.87
2018-11-27T19:22:52.863Z,36.97
2018-11-27T19:25:21.767Z,31.60
2018-11-27T19:27:50.675Z,32.03
2018-11-27T19:30:20.875Z,28.17
2018-11-27T19:32:49.757Z,29.27
2018-11-27T19:35:25.030Z,44.97
2018-11-27T19:37:49.490Z,39.67
2018-11-27T19:40:19.207Z,43.23
2018-11-27T19:42:48.060Z,41.20
2018-11-27T19:45:21.089Z,35.73
2018-11-27T19:47:50.069Z,39.77
2018-11-27T19:50:18.936Z,44.33
2018-11-27T19:52:50.478Z,35.60
2018-11-27T19:55:19.640Z,41.67
2018-11-27T19:57:48.592Z,26.95
2018-11-27T20:00:24.517Z,35.13
2018-11-27T20:02:53.570Z,38.03
2018-11-27T20:05:23.911Z,34.80
2018-11-27T20:07:52.874Z,36.63
2018-11-27T20:10:52.727Z,31.17
2018-11-27T20:13:21.578Z,29.50
2018-11-27T20:15:50.435Z,45.10
2018-11-27T20:18:19.473Z,39.73
2018-11-27T20:20:48.495Z,29.03
2018-11-27T20:23:17.331Z,40.43
2018-11-27T20:25:47.207Z,32.30
2018-11-27T20:28:16.143Z,39.90
2018-11-27T20:30:45.265Z,35.13
2018-11-27T20:33:14.147Z,64.53
2018-11-27T20:35:43.049Z,36.30
2018-11-27T20:38:12.206Z,39.10
2018-11-27T20:40:41.580Z,39.80
2018-11-27T20:43:10.495Z,40.23
2018-11-27T20:45:40.743Z,43.10
2018-11-27T20:48:15.242Z,42.33
2018-11-27T20:50:44.850Z,39.73
2018-11-27T20:53:13.704Z,38.60
2018-11-27T20:55:43.282Z,42.07
2018-11-27T20:58:12.460Z,34.47
2018-11-27T21:00:42.955Z,44.93
2018-11-27T21:03:12.503Z,38.87
2018-11-27T21:05:42.167Z,37.77
2018-11-27T21:08:11.061Z,47.70
2018-11-27T21:10:40.659Z,40.88
2018-11-27T21:13:10.702Z,42.53
2018-11-27T21:15:41.727Z,41.50
2018-11-27T21:18:11.435Z,37.40
2018-11-27T21:20:41.261Z,39.18
2018-11-27T21:23:10.124Z,40.33
2018-11-27T21:25:39.869Z,38.93
2018-11-27T21:28:10.397Z,37.50
2018-11-27T21:30:39.227Z,39.37
2018-11-27T21:33:08.182Z,40.30
2018-11-27T21:35:37.261Z,33.00
2018-11-27T21:38:06.553Z,35.10
2018-11-27T21:40:35.853Z,36.80
2018-11-27T21:43:05.592Z,38.27
2018-11-27T21:45:34.554Z,45.50
2018-11-27T21:48:03.416Z,41.43
2018-11-27T21:50:37.696Z,42.20
2018-11-27T21:53:06.768Z,38.80
2018-11-27T21:55:35.683Z,43.17
2018-11-27T21:58:04.579Z,46.07
2018-11-27T22:00:33.545Z,38.63
2018-11-27T22:03:02.711Z,46.97
2018-11-27T22:05:31.652Z,42.53
2018-11-27T22:08:00.513Z,46.57
2018-11-27T22:10:29.367Z,45.50
2018-11-27T22:12:58.919Z,48.33
2018-11-27T22:15:32.307Z,42.83
2018-11-27T22:18:01.303Z,38.67
2018-11-27T22:20:30.193Z,49.63
2018-11-27T22:22:59.084Z,40.53
2018-11-27T22:25:28.998Z,40.67
2018-11-27T22:27:58.460Z,38.63
2018-11-27T22:30:28.386Z,44.47
2018-11-27T22:32:58.227Z,41.50
2018-11-27T22:35:27.454Z,36.47
2018-11-27T22:37:57.218Z,40.27
2018-11-27T22:40:26.884Z,42.00
2018-11-27T22:42:56.527Z,35.60
2018-11-27T22:45:31.525Z,40.60
2018-11-27T22:48:00.959Z,43.23
2018-11-27T22:50:30.161Z,43.63
2018-11-27T22:52:59.898Z,41.90
2018-11-27T22:55:28.746Z,45.20
2018-11-27T22:57:57.588Z,38.90
2018-11-27T23:00:32.456Z,48.50
2018-11-27T23:03:01.461Z,48.67
2018-11-27T23:05:30.399Z,36.80
2018-11-27T23:07:59.415Z,47.57
2018-11-27T23:10:29.721Z,42.63
2018-11-27T23:12:58.708Z,48.92
2018-11-27T23:15:27.555Z,45.83
2018-11-27T23:17:56.487Z,40.20
2018-11-27T23:20:25.381Z,42.60
2018-11-27T23:22:54.283Z,44.27
2018-11-27T23:25:23.375Z,37.80
2018-11-27T23:27:52.255Z,42.57
2018-11-27T23:30:23.447Z,43.33
2018-11-27T23:32:52.332Z,42.77
2018-11-27T23:35:21.200Z,44.13
2018-11-27T23:37:50.127Z,48.87
2018-11-27T23:40:20.860Z,42.47
2018-11-27T23:42:49.959Z,47.73
2018-11-27T23:45:23.066Z,38.17
2018-11-27T23:47:51.940Z,47.30
2018-11-27T23:50:21.735Z,41.07
2018-11-27T23:52:50.715Z,43.23
2018-11-27T23:55:20.231Z,39.27
2018-11-27T23:57:49.333Z,41.70
